createdAt,value
2023-04-12T00:01:37.762Z,3.21
2023-04-12T00:04:06.048Z,3.23
2023-04-12T00:06:35.165Z,3.24
2023-04-12T00:09:04.348Z,3.23
2023-04-12T00:11:32.478Z,3.22
2023-04-12T00:14:00.546Z,3.18
2023-04-12T00:16:28.630Z,3.14
2023-04-12T00:18:57.543Z,3.11
2023-04-12T00:21:25.705Z,3.11
2023-04-12T00:23:54.522Z,3.12
2023-04-12T00:26:22.820Z,3.12
2023-04-12T00:28:51.363Z,3.14
2023-04-12T00:31:20.659Z,3.14
2023-04-12T00:33:49.498Z,3.14
2023-04-12T00:36:17.600Z,3.12
2023-04-12T00:38:48.579Z,3.09
2023-04-12T00:41:17.716Z,3.03
2023-04-12T00:43:45.768Z,3.01
2023-04-12T00:46:13.832Z,3.00
2023-04-12T00:48:41.940Z,3.02
2023-04-12T00:51:10.098Z,3.05
2023-04-12T00:53:38.461Z,3.09
2023-04-12T00:56:07.785Z,3.09
2023-04-12T00:58:35.990Z,3.09
2023-04-12T01:01:04.156Z,3.06
2023-04-12T01:03:32.449Z,3.01
2023-04-12T01:06:09.846Z,2.97
2023-04-12T01:08:47.081Z,2.91
2023-04-12T01:11:15.321Z,2.90
2023-04-12T01:14:03.501Z,2.93
2023-04-12T01:16:41.101Z,2.97
2023-04-12T01:19:24.095Z,3.00
2023-04-12T01:22:02.704Z,3.03
2023-04-12T01:24:43.745Z,3.02
2023-04-12T01:27:13.614Z,3.00
2023-04-12T01:29:42.224Z,2.97
2023-04-12T01:32:12.402Z,2.96
2023-04-12T01:34:41.795Z,2.94
2023-04-12T01:37:10.061Z,2.96
2023-04-12T01:39:40.316Z,2.99
2023-04-12T01:42:08.418Z,3.01
2023-04-12T01:44:36.548Z,3.01
2023-04-12T01:47:04.734Z,3.00
2023-04-12T01:49:37.155Z,3.00
2023-04-12T01:52:10.014Z,2.97
2023-04-12T01:54:39.395Z,2.95
2023-04-12T01:57:08.736Z,2.91
2023-04-12T01:59:40.047Z,2.88
2023-04-12T02:02:09.483Z,2.87
2023-04-12T02:04:38.557Z,2.89
2023-04-12T02:07:06.682Z,2.91
2023-04-12T02:09:38.623Z,2.94
2023-04-12T02:12:07.832Z,2.93
2023-04-12T02:14:37.362Z,2.96
2023-04-12T02:17:05.753Z,2.96
2023-04-12T02:19:34.330Z,2.93
2023-04-12T02:22:02.643Z,2.87
2023-04-12T02:24:31.126Z,2.84
2023-04-12T02:26:59.424Z,2.83
2023-04-12T02:29:27.860Z,2.83
2023-04-12T02:31:56.108Z,2.85
2023-04-12T02:34:34.349Z,2.88
2023-04-12T02:37:10.578Z,2.90
2023-04-12T02:39:41.513Z,2.91
2023-04-12T02:42:09.801Z,2.89
2023-04-12T02:44:38.484Z,2.86
2023-04-12T02:47:12.606Z,2.83
2023-04-12T02:49:41.868Z,2.79
2023-04-12T02:52:11.391Z,2.78
2023-04-12T02:54:44.119Z,2.79
2023-04-12T02:57:16.345Z,2.81
2023-04-12T02:59:46.745Z,2.84
2023-04-12T03:02:24.232Z,2.85
2023-04-12T03:04:55.003Z,2.86
2023-04-12T03:07:27.970Z,2.86
2023-04-12T03:09:56.188Z,2.84
2023-04-12T03:12:24.913Z,2.81
2023-04-12T03:15:00.565Z,2.74
2023-04-12T03:17:29.591Z,2.69
2023-04-12T03:20:03.120Z,2.69
2023-04-12T03:22:32.092Z,2.70
2023-04-12T03:25:00.205Z,2.72
2023-04-12T03:27:28.417Z,2.76
2023-04-12T03:29:56.720Z,2.79
2023-04-12T03:32:25.147Z,2.80
2023-04-12T03:34:53.588Z,2.80
2023-04-12T03:37:25.631Z,2.79
2023-04-12T03:39:56.255Z,2.76
2023-04-12T03:42:32.991Z,2.72
2023-04-12T03:45:13.390Z,2.72
2023-04-12T03:47:44.310Z,2.73
2023-04-12T03:50:12.829Z,2.74
2023-04-12T03:52:45.716Z,2.79
2023-04-12T03:55:18.226Z,2.81
2023-04-12T03:57:46.688Z,2.85
2023-04-12T04:00:15.132Z,2.85
2023-04-12T04:03:03.835Z,2.84
2023-04-12T04:05:35.323Z,2.82
2023-04-12T04:08:04.785Z,2.78
2023-04-12T04:10:37.409Z,2.77
2023-04-12T04:13:05.779Z,2.77
2023-04-12T04:15:33.879Z,2.80
2023-04-12T04:18:02.324Z,2.89
2023-04-12T04:20:32.113Z,3.09
2023-04-12T04:23:00.180Z,3.30
2023-04-12T04:25:30.254Z,3.45
2023-04-12T04:28:02.976Z,3.56
2023-04-12T04:30:34.320Z,3.65
2023-04-12T04:33:02.941Z,3.69
2023-04-12T04:35:31.714Z,3.70
2023-04-12T04:38:10.353Z,3.76
2023-04-12T04:40:38.717Z,3.79
2023-04-12T04:43:08.381Z,3.75
2023-04-12T04:45:38.928Z,3.72
2023-04-12T04:48:07.186Z,3.70
2023-04-12T04:50:35.378Z,3.70
2023-04-12T04:53:03.671Z,3.67
2023-04-12T04:55:33.498Z,3.68
2023-04-12T04:58:01.785Z,3.69
2023-04-12T05:00:30.528Z,3.67
2023-04-12T05:02:59.085Z,3.66
2023-04-12T05:05:30.493Z,3.61
2023-04-12T05:08:09.912Z,3.56
2023-04-12T05:10:38.133Z,3.54
2023-04-12T05:13:06.268Z,3.53
2023-04-12T05:15:35.172Z,3.57
2023-04-12T05:18:03.602Z,3.60
2023-04-12T05:20:32.110Z,3.62
2023-04-12T05:23:01.300Z,3.66
2023-04-12T05:25:29.318Z,3.68
2023-04-12T05:28:03.770Z,3.71
2023-04-12T05:30:31.858Z,3.69
2023-04-12T05:32:59.976Z,3.67
2023-04-12T05:35:28.310Z,3.65
2023-04-12T05:37:59.831Z,3.66
2023-04-12T05:40:28.054Z,3.71
2023-04-12T05:42:56.456Z,3.77
2023-04-12T05:45:25.237Z,3.83
2023-04-12T05:47:55.087Z,3.88
2023-04-12T05:50:24.146Z,3.96
2023-04-12T05:52:53.605Z,4.03
2023-04-12T05:55:25.147Z,4.06
2023-04-12T05:57:53.487Z,4.08
2023-04-12T06:00:21.792Z,4.04
2023-04-12T06:02:50.755Z,4.01
2023-04-12T06:05:19.537Z,3.96
2023-04-12T06:07:48.538Z,3.95
2023-04-12T06:10:17.595Z,3.96
2023-04-12T06:12:49.182Z,3.99
2023-04-12T06:15:17.718Z,4.02
2023-04-12T06:17:46.060Z,4.04
2023-04-12T06:20:14.663Z,4.08
2023-04-12T06:22:42.669Z,4.09
2023-04-12T06:25:11.032Z,4.11
2023-04-12T06:27:39.229Z,4.07
2023-04-12T06:30:08.202Z,4.08
2023-04-12T06:32:38.695Z,4.09
2023-04-12T06:35:07.605Z,4.03
2023-04-12T06:37:35.713Z,4.04
2023-04-12T06:40:03.901Z,4.05
2023-04-12T06:42:32.014Z,4.09
2023-04-12T06:45:00.050Z,4.14
2023-04-12T06:47:28.096Z,4.21
2023-04-12T06:49:58.239Z,4.32
2023-04-12T06:52:26.866Z,4.40
2023-04-12T06:54:57.112Z,4.48
2023-04-12T06:57:25.439Z,4.50
2023-04-12T06:59:53.532Z,4.57
2023-04-12T07:02:21.660Z,4.62
2023-04-12T07:04:54.497Z,4.64
2023-04-12T07:07:22.615Z,4.66
2023-04-12T07:09:52.438Z,4.68
2023-04-12T07:12:20.584Z,4.74
2023-04-12T07:14:48.823Z,4.83
2023-04-12T07:17:16.918Z,4.91
2023-04-12T07:19:45.196Z,5.05
2023-04-12T07:22:14.152Z,5.21
2023-04-12T07:24:42.432Z,5.36
2023-04-12T07:27:11.206Z,5.48
2023-04-12T07:29:39.244Z,5.58
2023-04-12T07:32:08.074Z,5.66
2023-04-12T07:34:36.991Z,5.75
2023-04-12T07:37:05.293Z,5.92
2023-04-12T07:39:35.005Z,6.10
2023-04-12T07:42:03.232Z,6.42
2023-04-12T07:44:31.685Z,6.76
2023-04-12T07:46:59.724Z,7.20
2023-04-12T07:49:27.998Z,7.76
2023-04-12T07:51:57.521Z,8.06
2023-04-12T07:54:27.739Z,8.30
2023-04-12T07:57:04.943Z,8.49
2023-04-12T07:59:33.054Z,8.83
2023-04-12T08:02:02.000Z,9.10
2023-04-12T08:04:30.342Z,9.26
2023-04-12T08:06:58.465Z,9.41
2023-04-12T08:09:26.502Z,9.56
2023-04-12T08:11:54.547Z,9.72
2023-04-12T08:14:22.724Z,9.89
2023-04-12T08:16:50.820Z,10.08
2023-04-12T08:19:20.489Z,10.37
2023-04-12T08:21:48.433Z,10.64
2023-04-12T08:24:16.609Z,10.70
2023-04-12T08:26:44.593Z,10.87
2023-04-12T08:29:12.831Z,10.95
2023-04-12T08:31:41.412Z,11.38
2023-04-12T08:34:09.498Z,11.80
2023-04-12T08:36:37.520Z,11.85
2023-04-12T08:39:05.772Z,11.96
2023-04-12T08:41:35.739Z,12.04
2023-04-12T08:44:05.626Z,12.00
2023-04-12T08:46:35.730Z,11.88
2023-04-12T08:49:03.758Z,11.73
2023-04-12T08:51:32.937Z,11.70
2023-04-12T08:54:01.039Z,11.60
2023-04-12T08:56:29.967Z,11.69
2023-04-12T08:58:58.059Z,11.73
2023-04-12T09:01:26.095Z,11.68
2023-04-12T09:03:54.452Z,11.42
2023-04-12T09:06:22.542Z,11.32
2023-04-12T09:08:55.055Z,11.30
2023-04-12T09:11:32.690Z,11.17
2023-04-12T09:14:01.355Z,10.92
2023-04-12T09:16:36.398Z,10.73
2023-04-12T09:19:05.159Z,10.44
2023-04-12T09:21:36.579Z,10.19
2023-04-12T09:24:11.607Z,9.86
2023-04-12T09:26:42.093Z,9.46
2023-04-12T09:29:25.761Z,9.05
2023-04-12T09:32:04.247Z,8.70
2023-04-12T09:34:32.830Z,8.53
2023-04-12T09:37:12.299Z,8.44
2023-04-12T09:39:40.818Z,8.25
2023-04-12T09:42:21.380Z,8.16
2023-04-12T09:44:53.925Z,7.93
2023-04-12T09:47:22.136Z,7.84
2023-04-12T09:49:50.238Z,7.80
2023-04-12T09:52:18.694Z,7.76
2023-04-12T09:54:48.573Z,7.68
2023-04-12T09:57:22.657Z,7.52
2023-04-12T09:59:52.422Z,7.47
2023-04-12T10:02:25.371Z,7.42
2023-04-12T10:04:54.014Z,7.35
2023-04-12T10:07:22.296Z,7.33
2023-04-12T10:09:50.729Z,7.30
2023-04-12T10:12:19.586Z,7.36
2023-04-12T10:14:48.027Z,7.35
2023-04-12T10:17:19.204Z,7.39
2023-04-12T10:19:47.961Z,7.39
2023-04-12T10:22:17.568Z,7.38
2023-04-12T10:24:45.733Z,7.29
2023-04-12T10:27:13.746Z,7.23
2023-04-12T10:29:43.346Z,7.20
2023-04-12T10:32:22.273Z,7.19
2023-04-12T10:34:54.873Z,7.15
2023-04-12T10:37:23.055Z,7.11
2023-04-12T10:39:54.668Z,7.09
2023-04-12T10:42:27.511Z,7.04
2023-04-12T10:45:00.385Z,6.96
2023-04-12T10:47:47.710Z,7.02
2023-04-12T10:50:25.954Z,7.11
2023-04-12T10:53:13.650Z,7.21
2023-04-12T10:55:45.441Z,7.26
2023-04-12T10:58:36.811Z,7.35
2023-04-12T11:01:05.079Z,7.40
2023-04-12T11:03:33.222Z,7.39
2023-04-12T11:06:16.109Z,7.35
2023-04-12T11:09:25.681Z,7.25
2023-04-12T11:12:06.593Z,7.20
2023-04-12T11:14:38.158Z,7.16
2023-04-12T11:17:06.545Z,7.14
2023-04-12T11:19:42.048Z,7.16
2023-04-12T11:22:14.039Z,7.19
2023-04-12T11:24:52.430Z,7.21
2023-04-12T11:27:21.811Z,7.26
2023-04-12T11:29:51.015Z,7.30
2023-04-12T11:32:19.438Z,7.41
2023-04-12T11:34:47.929Z,7.66
2023-04-12T11:37:18.261Z,7.86
2023-04-12T11:39:46.684Z,8.05
2023-04-12T11:42:19.154Z,8.10
2023-04-12T11:44:57.668Z,8.28
2023-04-12T11:47:27.548Z,8.46
2023-04-12T11:49:57.287Z,8.59
2023-04-12T11:52:30.344Z,8.74
2023-04-12T11:55:04.934Z,8.95
2023-04-12T11:57:33.665Z,9.08
2023-04-12T12:00:04.524Z,9.22
2023-04-12T12:02:46.638Z,9.29
2023-04-12T12:05:24.623Z,9.23
2023-04-12T12:07:54.158Z,9.14
2023-04-12T12:10:37.644Z,9.07
2023-04-12T12:13:11.629Z,9.03
2023-04-12T12:15:39.953Z,8.97
2023-04-12T12:18:09.088Z,8.82
2023-04-12T12:20:42.067Z,8.65
2023-04-12T12:23:10.149Z,8.56
2023-04-12T12:25:38.273Z,8.50
2023-04-12T12:28:12.895Z,8.46
2023-04-12T12:30:41.115Z,8.44
2023-04-12T12:33:09.797Z,8.47
2023-04-12T12:35:37.970Z,8.47
2023-04-12T12:38:07.206Z,8.45
2023-04-12T12:40:36.087Z,8.53
2023-04-12T12:43:04.204Z,8.61
2023-04-12T12:45:33.486Z,8.70
2023-04-12T12:48:03.131Z,8.74
2023-04-12T12:50:32.223Z,8.81
2023-04-12T12:53:00.991Z,8.88
2023-04-12T12:55:30.037Z,8.96
2023-04-12T13:00:29.931Z,9.30
2023-04-12T13:02:58.845Z,9.41
2023-04-12T13:05:27.277Z,9.50
2023-04-12T13:07:55.318Z,9.57
2023-04-12T13:10:23.934Z,9.61
2023-04-12T13:12:52.069Z,9.61
2023-04-12T13:15:23.579Z,9.55
2023-04-12T13:17:52.861Z,9.41
2023-04-12T13:20:21.517Z,9.30
2023-04-12T13:22:50.375Z,9.22
2023-04-12T13:25:19.970Z,9.14
2023-04-12T13:27:48.868Z,9.05
2023-04-12T13:30:17.908Z,8.99
2023-04-12T13:32:46.003Z,9.00
2023-04-12T13:35:14.144Z,8.88
2023-04-12T13:37:42.302Z,8.81
2023-04-12T13:40:10.436Z,8.82
2023-04-12T13:42:38.483Z,8.81
2023-04-12T13:45:07.757Z,8.76
2023-04-12T13:47:36.519Z,8.72
2023-04-12T13:50:04.863Z,8.69
2023-04-12T13:52:33.071Z,8.68
2023-04-12T13:55:01.154Z,8.71
2023-04-12T13:57:29.186Z,8.79
2023-04-12T13:59:57.325Z,8.91
2023-04-12T14:02:25.923Z,9.05
2023-04-12T14:04:55.211Z,9.13
2023-04-12T14:07:24.290Z,9.21
2023-04-12T14:09:52.419Z,9.45
2023-04-12T14:12:20.412Z,9.53
2023-04-12T14:14:48.392Z,9.34
2023-04-12T14:17:16.502Z,9.44
2023-04-12T14:19:44.651Z,9.60
2023-04-12T14:22:12.803Z,9.71
2023-04-12T14:24:41.382Z,9.71
2023-04-12T14:27:09.345Z,9.69
2023-04-12T14:29:37.869Z,9.83
2023-04-12T14:32:06.007Z,9.96
2023-04-12T14:34:34.526Z,10.08
2023-04-12T14:37:03.389Z,10.13
2023-04-12T14:39:31.469Z,10.04
2023-04-12T14:41:59.690Z,9.98
2023-04-12T14:44:27.794Z,9.81
2023-04-12T14:46:55.987Z,9.62
2023-04-12T14:49:24.171Z,9.55
2023-04-12T14:51:52.261Z,9.42
2023-04-12T14:54:21.555Z,9.30
2023-04-12T14:56:55.286Z,9.24
2023-04-12T14:59:24.286Z,9.12
2023-04-12T15:01:52.952Z,9.01
2023-04-12T15:04:21.402Z,8.93
2023-04-12T15:06:49.576Z,8.79
2023-04-12T15:09:18.048Z,8.65
2023-04-12T15:11:49.539Z,8.59
2023-04-12T15:14:20.931Z,8.52
2023-04-12T15:16:49.467Z,8.47
2023-04-12T15:19:22.380Z,8.42
2023-04-12T15:21:52.274Z,8.35
2023-04-12T15:24:21.101Z,8.34
2023-04-12T15:26:50.925Z,8.31
2023-04-12T15:29:19.604Z,8.29
2023-04-12T15:31:47.591Z,8.28
2023-04-12T15:34:15.691Z,8.26
2023-04-12T15:36:44.408Z,8.22
2023-04-12T15:39:14.841Z,8.17
2023-04-12T15:41:43.516Z,8.20
2023-04-12T15:44:13.503Z,8.20
2023-04-12T15:46:42.275Z,8.16
2023-04-12T15:49:10.893Z,8.11
2023-04-12T15:51:39.058Z,8.06
2023-04-12T15:54:07.093Z,8.00
2023-04-12T15:56:35.599Z,7.94
2023-04-12T15:59:03.655Z,7.89
2023-04-12T16:01:31.698Z,7.84
2023-04-12T16:04:00.240Z,7.80
2023-04-12T16:06:30.514Z,7.71
2023-04-12T16:08:58.669Z,7.60
2023-04-12T16:11:27.539Z,7.51
2023-04-12T16:13:55.690Z,7.44
2023-04-12T16:16:25.081Z,7.39
2023-04-12T16:18:53.550Z,7.33
2023-04-12T16:21:23.587Z,7.29
2023-04-12T16:23:51.810Z,7.25
2023-04-12T16:26:22.419Z,7.25
2023-04-12T16:28:53.479Z,7.25
2023-04-12T16:31:22.943Z,7.27
2023-04-12T16:33:54.761Z,7.26
2023-04-12T16:36:27.523Z,7.23
2023-04-12T16:38:56.208Z,7.22
2023-04-12T16:41:24.612Z,7.19
2023-04-12T16:43:57.989Z,7.12
2023-04-12T16:46:27.536Z,7.05
2023-04-12T16:49:03.572Z,6.98
2023-04-12T16:51:36.740Z,6.95
2023-04-12T16:54:05.910Z,6.89
2023-04-12T16:56:34.446Z,6.82
2023-04-12T16:59:02.608Z,6.75
2023-04-12T17:01:32.435Z,6.66
2023-04-12T17:04:02.706Z,6.56
2023-04-12T17:06:34.200Z,6.44
2023-04-12T17:09:02.500Z,6.32
2023-04-12T17:11:30.949Z,6.21
2023-04-12T17:13:59.466Z,6.11
2023-04-12T17:16:28.083Z,6.08
2023-04-12T17:18:56.531Z,6.07
2023-04-12T17:21:25.733Z,6.09
2023-04-12T17:23:54.470Z,6.10
2023-04-12T17:26:26.096Z,6.10
2023-04-12T17:28:54.733Z,6.04
2023-04-12T17:31:22.824Z,6.01
2023-04-12T17:33:51.098Z,5.88
2023-04-12T17:36:19.134Z,5.80
2023-04-12T17:38:47.160Z,5.74
2023-04-12T17:41:15.217Z,5.68
2023-04-12T17:43:45.638Z,5.62
2023-04-12T17:46:13.728Z,5.56
2023-04-12T17:48:42.157Z,5.49
2023-04-12T17:51:10.440Z,5.42
2023-04-12T17:53:39.953Z,5.39
2023-04-12T17:56:08.209Z,5.39
2023-04-12T17:58:36.563Z,5.37
2023-04-12T18:01:04.701Z,5.36
2023-04-12T18:03:34.473Z,5.39
2023-04-12T18:06:04.348Z,5.42
2023-04-12T18:08:32.658Z,5.39
2023-04-12T18:11:00.878Z,5.37
2023-04-12T18:13:29.036Z,5.35
2023-04-12T18:15:57.240Z,5.29
2023-04-12T18:18:26.759Z,5.22
2023-04-12T18:20:55.017Z,5.16
2023-04-12T18:23:24.144Z,5.08
2023-04-12T18:25:54.676Z,5.06
2023-04-12T18:28:23.256Z,5.07
2023-04-12T18:30:53.032Z,5.08
2023-04-12T18:33:22.236Z,5.10
2023-04-12T18:35:51.401Z,5.09
2023-04-12T18:38:19.896Z,5.06
2023-04-12T18:40:48.191Z,5.01
2023-04-12T18:43:17.120Z,4.96
2023-04-12T18:45:46.313Z,4.92
2023-04-12T18:48:14.632Z,4.87
2023-04-12T18:50:43.567Z,4.85
2023-04-12T18:53:11.675Z,4.84
2023-04-12T18:55:40.810Z,4.84
2023-04-12T18:58:09.600Z,4.82
2023-04-12T19:00:38.392Z,4.85
2023-04-12T19:03:06.607Z,4.83
2023-04-12T19:05:37.487Z,4.76
2023-04-12T19:08:10.207Z,4.64
2023-04-12T19:10:38.213Z,4.54
2023-04-12T19:13:06.791Z,4.40
2023-04-12T19:15:35.615Z,4.27
2023-04-12T19:18:04.015Z,4.21
2023-04-12T19:20:33.174Z,4.18
2023-04-12T19:23:03.561Z,4.15
2023-04-12T19:25:33.049Z,4.15
2023-04-12T19:28:01.385Z,4.16
2023-04-12T19:30:29.979Z,4.15
2023-04-12T19:32:58.726Z,4.11
2023-04-12T19:35:28.946Z,4.05
2023-04-12T19:37:57.519Z,3.94
2023-04-12T19:40:25.718Z,3.82
2023-04-12T19:42:54.213Z,3.69
2023-04-12T19:45:22.772Z,3.53
2023-04-12T19:47:54.197Z,3.37
2023-04-12T19:50:23.152Z,3.22
2023-04-12T19:52:51.969Z,3.07
2023-04-12T19:55:21.584Z,2.92
2023-04-12T19:57:49.983Z,2.79
2023-04-12T20:00:22.980Z,2.66
2023-04-12T20:02:52.241Z,2.53
2023-04-12T20:05:23.200Z,2.41
2023-04-12T20:07:52.805Z,2.30
2023-04-12T20:10:21.058Z,2.22
2023-04-12T20:12:49.041Z,2.16
2023-04-12T20:15:17.995Z,2.13
2023-04-12T20:17:46.712Z,2.10
2023-04-12T20:20:15.516Z,2.05
2023-04-12T20:22:46.005Z,2.02
2023-04-12T20:25:15.235Z,1.99
2023-04-12T20:27:44.880Z,1.91
2023-04-12T20:30:17.696Z,1.84
2023-04-12T20:32:45.900Z,1.74
2023-04-12T20:35:14.234Z,1.63
2023-04-12T20:37:43.328Z,1.52
2023-04-12T20:40:11.617Z,1.44
2023-04-12T20:42:39.846Z,1.38
2023-04-12T20:45:08.577Z,1.31
2023-04-12T20:47:38.049Z,1.23
2023-04-12T20:50:07.666Z,1.20
2023-04-12T20:52:35.784Z,1.19
2023-04-12T20:55:04.896Z,1.20
2023-04-12T20:57:33.115Z,1.22
2023-04-12T21:00:01.541Z,1.29
2023-04-12T21:02:29.903Z,1.39
2023-04-12T21:04:59.468Z,1.52
2023-04-12T21:07:27.591Z,1.62
2023-04-12T21:09:55.591Z,1.68
2023-04-12T21:12:23.634Z,1.71
2023-04-12T21:14:51.681Z,1.73
2023-04-12T21:17:22.523Z,1.74
2023-04-12T21:19:51.162Z,1.75
2023-04-12T21:22:19.320Z,1.70
2023-04-12T21:24:47.330Z,1.68
2023-04-12T21:27:15.389Z,1.68
2023-04-12T21:29:43.502Z,1.72
2023-04-12T21:32:12.240Z,1.76
2023-04-12T21:34:40.256Z,1.81
2023-04-12T21:37:08.268Z,1.88
2023-04-12T21:39:37.861Z,1.99
2023-04-12T21:42:05.920Z,2.07
2023-04-12T21:44:34.486Z,2.17
2023-04-12T21:47:02.594Z,2.24
2023-04-12T21:49:31.305Z,2.25
2023-04-12T21:51:59.582Z,2.22
2023-04-12T21:54:31.489Z,2.17
2023-04-12T21:56:59.814Z,2.11
2023-04-12T21:59:27.854Z,2.07
2023-04-12T22:01:56.198Z,2.05
2023-04-12T22:04:24.360Z,2.02
2023-04-12T22:06:53.160Z,1.99
2023-04-12T22:09:21.248Z,1.95
2023-04-12T22:11:49.300Z,1.91
2023-04-12T22:14:17.358Z,1.90
2023-04-12T22:16:45.489Z,1.90
2023-04-12T22:19:13.606Z,1.92
2023-04-12T22:21:41.581Z,1.94
2023-04-12T22:24:10.066Z,2.01
2023-04-12T22:26:38.128Z,2.13
2023-04-12T22:29:06.268Z,2.23
2023-04-12T22:31:34.705Z,2.27
2023-04-12T22:34:04.638Z,2.31
2023-04-12T22:36:37.589Z,2.31
2023-04-12T22:39:06.157Z,2.30
2023-04-12T22:41:35.343Z,2.30
2023-04-12T22:44:04.010Z,2.26
2023-04-12T22:46:32.177Z,2.27
2023-04-12T22:49:03.404Z,2.25
2023-04-12T22:51:31.725Z,2.25
2023-04-12T22:54:00.003Z,2.27
2023-04-12T22:56:29.318Z,2.29
2023-04-12T22:58:57.398Z,2.34
2023-04-12T23:01:25.931Z,2.40
2023-04-12T23:03:54.315Z,2.47
2023-04-12T23:06:22.366Z,2.49
2023-04-12T23:08:50.889Z,2.54
2023-04-12T23:11:19.260Z,2.53
2023-04-12T23:13:47.337Z,2.52
2023-04-12T23:16:16.375Z,2.51
2023-04-12T23:18:45.158Z,2.48
2023-04-12T23:21:13.175Z,2.44
2023-04-12T23:23:41.763Z,2.42
2023-04-12T23:26:13.262Z,2.44
2023-04-12T23:28:41.380Z,2.44
2023-04-12T23:31:09.997Z,2.49
2023-04-12T23:33:43.261Z,2.54
2023-04-12T23:36:11.834Z,2.54
2023-04-12T23:38:40.758Z,2.53
2023-04-12T23:41:10.429Z,2.51
2023-04-12T23:43:38.823Z,2.55
2023-04-12T23:46:06.959Z,2.55
2023-04-12T23:48:35.238Z,2.51
2023-04-12T23:51:03.313Z,2.47
2023-04-12T23:53:31.626Z,2.42
2023-04-12T23:55:59.745Z,2.39
2023-04-12T23:58:27.834Z,2.36
